PGT387U LTFH-LTFJ
Flight info
| Callsign | PGT387U |
|---|---|
| Flight time | 1h 1m |
| Altitude | 38000 |
| Route | HAVZA1Y/13 HAVZA UW71 ILHAN UT79 NAMAN |
| Aircraft | A320/M-SDE3FGHIRWY/LB1 |
Departure
| Time | 2026-04-26 19:43 |
|---|---|
| Airport | Samsun-Çarşamba Airport (LTFH) |
Arrival
| Time | 2026-04-26 20:44 |
|---|---|
| Airport | Istanbul Sabiha Gökçen International Airport (LTFJ) |
| Time | Latitude | Longitude | Altitude | Speed | Heading |
|---|---|---|---|---|---|
| 2026-04-26 19:26 | 41.25818 | 36.55597 | 25 ft | 0 kts | 224° |
| 2026-04-26 19:34 | 41.25829 | 36.55612 | 29 ft | 2 kts | 224° |
| 2026-04-26 19:34 | 41.25841 | 36.55627 | 30 ft | 2 kts | 224° |
| 2026-04-26 19:34 | 41.25854 | 36.55643 | 29 ft | 2 kts | 224° |
| 2026-04-26 19:35 | 41.25866 | 36.55659 | 29 ft | 2 kts | 224° |
| 2026-04-26 19:35 | 41.25866 | 36.55660 | 29 ft | 0 kts | 224° |
| 2026-04-26 19:37 | 41.25865 | 36.55654 | 30 ft | 1 kts | 250° |
| 2026-04-26 19:37 | 41.25881 | 36.55621 | 25 ft | 9 kts | 303° |
| 2026-04-26 19:37 | 41.25934 | 36.55548 | 25 ft | 11 kts | 315° |
| 2026-04-26 19:38 | 41.25983 | 36.55483 | 27 ft | 9 kts | 315° |
| 2026-04-26 19:38 | 41.26023 | 36.55428 | 27 ft | 8 kts | 314° |
| 2026-04-26 19:38 | 41.26057 | 36.55382 | 27 ft | 6 kts | 314° |
| 2026-04-26 19:38 | 41.26102 | 36.55320 | 27 ft | 12 kts | 314° |
| 2026-04-26 19:39 | 41.26159 | 36.55243 | 27 ft | 11 kts | 322° |
| 2026-04-26 19:39 | 41.26221 | 36.55235 | 26 ft | 9 kts | 31° |
| 2026-04-26 19:39 | 41.26261 | 36.55285 | 26 ft | 7 kts | 44° |
| 2026-04-26 19:39 | 41.26292 | 36.55325 | 28 ft | 5 kts | 44° |
| 2026-04-26 19:40 | 41.26315 | 36.55354 | 27 ft | 4 kts | 44° |
| 2026-04-26 19:40 | 41.26337 | 36.55383 | 28 ft | 8 kts | 44° |
| 2026-04-26 19:40 | 41.26348 | 36.55451 | 26 ft | 7 kts | 110° |
| 2026-04-26 19:40 | 41.26317 | 36.55501 | 25 ft | 7 kts | 133° |
| 2026-04-26 19:41 | 41.26303 | 36.55519 | 28 ft | 0 kts | 133° |
| 2026-04-26 19:42 | 41.26296 | 36.55529 | 27 ft | 9 kts | 133° |
| 2026-04-26 19:42 | 41.26102 | 36.55794 | 25 ft | 77 kts | 134° |
| 2026-04-26 19:42 | 41.25591 | 36.56524 | 26 ft | 136 kts | 133° |
| 2026-04-26 19:42 | 41.24866 | 36.57572 | 301 ft | 158 kts | 132° |
| 2026-04-26 19:43 | 41.24131 | 36.58645 | 1010 ft | 157 kts | 134° |
| 2026-04-26 19:43 | 41.23373 | 36.59692 | 1646 ft | 158 kts | 134° |
| 2026-04-26 19:43 | 41.22585 | 36.60769 | 2058 ft | 175 kts | 134° |
| 2026-04-26 19:43 | 41.21684 | 36.62002 | 2375 ft | 197 kts | 133° |
| 2026-04-26 19:44 | 41.20681 | 36.63382 | 2664 ft | 219 kts | 133° |
| 2026-04-26 19:44 | 41.19580 | 36.64904 | 3021 ft | 239 kts | 132° |
| 2026-04-26 19:44 | 41.18683 | 36.66818 | 3553 ft | 252 kts | 101° |
| 2026-04-26 19:44 | 41.18800 | 36.69142 | 4209 ft | 261 kts | 65° |
| 2026-04-26 19:45 | 41.19823 | 36.71151 | 5005 ft | 267 kts | 47° |
| 2026-04-26 19:45 | 41.21161 | 36.72864 | 5784 ft | 274 kts | 40° |
| 2026-04-26 19:45 | 41.22644 | 36.74524 | 6575 ft | 282 kts | 38° |
| 2026-04-26 19:45 | 41.24361 | 36.75801 | 7325 ft | 286 kts | 13° |
| 2026-04-26 19:46 | 41.26332 | 36.75983 | 8137 ft | 287 kts | 348° |
| 2026-04-26 19:46 | 41.28190 | 36.75075 | 8989 ft | 284 kts | 323° |
| 2026-04-26 19:46 | 41.29651 | 36.73323 | 9875 ft | 283 kts | 311° |
| 2026-04-26 19:46 | 41.31036 | 36.71410 | 10446 ft | 297 kts | 311° |
| 2026-04-26 19:47 | 41.32307 | 36.69190 | 10710 ft | 315 kts | 297° |
| 2026-04-26 19:47 | 41.32906 | 36.67365 | 11073 ft | 321 kts | 286° |
| 2026-04-26 19:47 | 41.33307 | 36.63454 | 12002 ft | 327 kts | 266° |
| 2026-04-26 19:47 | 41.32872 | 36.60474 | 12740 ft | 331 kts | 251° |
| 2026-04-26 19:48 | 41.31940 | 36.57654 | 13474 ft | 335 kts | 246° |
| 2026-04-26 19:48 | 41.30954 | 36.54821 | 14154 ft | 339 kts | 246° |
| 2026-04-26 19:48 | 41.29956 | 36.51956 | 14782 ft | 342 kts | 246° |
| 2026-04-26 19:48 | 41.28951 | 36.49068 | 15416 ft | 346 kts | 246° |
| 2026-04-26 19:49 | 41.27932 | 36.46143 | 16050 ft | 350 kts | 246° |
| 2026-04-26 19:49 | 41.26915 | 36.43227 | 16677 ft | 353 kts | 246° |
| 2026-04-26 19:49 | 41.25876 | 36.40239 | 17293 ft | 357 kts | 246° |
| 2026-04-26 19:49 | 41.24833 | 36.37232 | 17906 ft | 361 kts | 246° |
| 2026-04-26 19:50 | 41.23775 | 36.34179 | 18488 ft | 365 kts | 246° |
| 2026-04-26 19:50 | 41.22708 | 36.31107 | 19022 ft | 368 kts | 246° |
| 2026-04-26 19:50 | 41.21626 | 36.28004 | 19562 ft | 371 kts | 246° |
| 2026-04-26 19:50 | 41.20531 | 36.24886 | 20092 ft | 374 kts | 246° |
| 2026-04-26 19:51 | 41.19424 | 36.21748 | 20623 ft | 377 kts | 246° |
| 2026-04-26 19:51 | 41.18306 | 36.18579 | 21142 ft | 380 kts | 246° |
| 2026-04-26 19:51 | 41.17182 | 36.15386 | 21650 ft | 382 kts | 246° |
| 2026-04-26 19:51 | 41.16071 | 36.12217 | 22140 ft | 385 kts | 246° |
| 2026-04-26 19:52 | 41.14934 | 36.08974 | 22649 ft | 388 kts | 246° |
| 2026-04-26 19:52 | 41.13789 | 36.05717 | 23130 ft | 391 kts | 246° |
| 2026-04-26 19:52 | 41.12632 | 36.02429 | 23613 ft | 394 kts | 246° |
| 2026-04-26 19:52 | 41.11469 | 35.99125 | 24008 ft | 397 kts | 246° |
| 2026-04-26 19:53 | 41.10299 | 35.95807 | 24403 ft | 399 kts | 246° |
| 2026-04-26 19:53 | 41.09120 | 35.92451 | 24803 ft | 402 kts | 247° |
| 2026-04-26 19:53 | 41.08015 | 35.89038 | 25160 ft | 404 kts | 249° |
| 2026-04-26 19:53 | 41.06981 | 35.85564 | 25530 ft | 406 kts | 250° |
| 2026-04-26 19:54 | 41.05982 | 35.82050 | 25901 ft | 409 kts | 251° |
| 2026-04-26 19:54 | 41.04988 | 35.78508 | 26265 ft | 411 kts | 251° |
| 2026-04-26 19:54 | 41.03987 | 35.74981 | 26623 ft | 414 kts | 251° |
| 2026-04-26 19:54 | 41.02955 | 35.71400 | 26980 ft | 417 kts | 250° |
| 2026-04-26 19:55 | 41.01904 | 35.67812 | 27336 ft | 419 kts | 250° |
| 2026-04-26 19:55 | 41.00853 | 35.64192 | 27691 ft | 421 kts | 250° |
| 2026-04-26 19:55 | 40.99809 | 35.60545 | 28041 ft | 424 kts | 251° |
| 2026-04-26 19:55 | 40.98763 | 35.56874 | 28391 ft | 427 kts | 251° |
| 2026-04-26 19:56 | 40.97714 | 35.53190 | 28732 ft | 429 kts | 251° |
| 2026-04-26 19:56 | 40.96669 | 35.49536 | 29072 ft | 431 kts | 250° |
| 2026-04-26 19:56 | 40.95597 | 35.45798 | 29392 ft | 434 kts | 250° |
| 2026-04-26 19:56 | 40.94522 | 35.42057 | 29691 ft | 436 kts | 250° |
| 2026-04-26 19:57 | 40.93437 | 35.38293 | 30001 ft | 438 kts | 250° |
| 2026-04-26 19:57 | 40.92345 | 35.34518 | 30265 ft | 441 kts | 250° |
| 2026-04-26 19:57 | 40.91250 | 35.30725 | 30528 ft | 442 kts | 250° |
| 2026-04-26 19:57 | 40.90148 | 35.26910 | 30780 ft | 444 kts | 250° |
| 2026-04-26 19:58 | 40.89043 | 35.23093 | 31038 ft | 446 kts | 250° |
| 2026-04-26 19:58 | 40.87929 | 35.19252 | 31318 ft | 447 kts | 250° |
| 2026-04-26 19:58 | 40.86819 | 35.15423 | 31693 ft | 445 kts | 250° |
| 2026-04-26 19:58 | 40.85709 | 35.11608 | 32061 ft | 445 kts | 250° |
| 2026-04-26 19:59 | 40.84601 | 35.07800 | 32423 ft | 444 kts | 250° |
| 2026-04-26 19:59 | 40.83506 | 35.04044 | 32768 ft | 443 kts | 251° |
| 2026-04-26 19:59 | 40.82394 | 35.00245 | 33110 ft | 442 kts | 250° |
| 2026-04-26 19:59 | 40.81282 | 34.96455 | 33470 ft | 441 kts | 250° |
| 2026-04-26 20:00 | 40.80170 | 34.92680 | 33813 ft | 441 kts | 250° |
| 2026-04-26 20:00 | 40.79057 | 34.88904 | 34140 ft | 440 kts | 251° |
| 2026-04-26 20:00 | 40.77950 | 34.85142 | 34448 ft | 439 kts | 251° |
| 2026-04-26 20:00 | 40.76848 | 34.81390 | 34758 ft | 438 kts | 250° |
| 2026-04-26 20:01 | 40.75746 | 34.77637 | 35059 ft | 437 kts | 250° |
| 2026-04-26 20:01 | 40.74651 | 34.73911 | 35370 ft | 436 kts | 250° |
| 2026-04-26 20:01 | 40.73548 | 34.70190 | 35654 ft | 435 kts | 250° |
| 2026-04-26 20:01 | 40.72434 | 34.66484 | 35923 ft | 434 kts | 250° |
| 2026-04-26 20:02 | 40.71312 | 34.62789 | 36196 ft | 434 kts | 250° |
| 2026-04-26 20:02 | 40.70181 | 34.59089 | 36459 ft | 433 kts | 250° |
| 2026-04-26 20:02 | 40.69058 | 34.55412 | 36718 ft | 432 kts | 250° |
| 2026-04-26 20:02 | 40.68320 | 34.52985 | 36880 ft | 432 kts | 250° |
| 2026-04-26 20:03 | 40.66847 | 34.48119 | 37192 ft | 431 kts | 250° |
| 2026-04-26 20:03 | 40.65743 | 34.44453 | 37422 ft | 430 kts | 250° |
| 2026-04-26 20:03 | 40.64637 | 34.40794 | 37652 ft | 430 kts | 250° |
| 2026-04-26 20:03 | 40.63525 | 34.37135 | 37876 ft | 429 kts | 249° |
| 2026-04-26 20:04 | 40.61289 | 34.29829 | 37964 ft | 429 kts | 249° |
| 2026-04-26 20:04 | 40.59065 | 34.22591 | 37962 ft | 429 kts | 249° |
| 2026-04-26 20:05 | 40.57258 | 34.15172 | 37960 ft | 425 kts | 266° |
| 2026-04-26 20:05 | 40.57371 | 34.11319 | 37965 ft | 423 kts | 281° |
| 2026-04-26 20:05 | 40.57930 | 34.07517 | 37970 ft | 424 kts | 282° |
| 2026-04-26 20:06 | 40.59083 | 33.99891 | 37971 ft | 424 kts | 282° |
| 2026-04-26 20:06 | 40.60228 | 33.92309 | 37977 ft | 424 kts | 282° |
| 2026-04-26 20:07 | 40.61350 | 33.84770 | 37946 ft | 415 kts | 281° |
| 2026-04-26 20:07 | 40.62450 | 33.77300 | 37953 ft | 417 kts | 281° |
| 2026-04-26 20:08 | 40.63559 | 33.69775 | 37961 ft | 420 kts | 281° |
| 2026-04-26 20:08 | 40.64673 | 33.62198 | 37974 ft | 422 kts | 281° |
| 2026-04-26 20:09 | 40.65783 | 33.54601 | 37994 ft | 423 kts | 281° |
| 2026-04-26 20:09 | 40.66893 | 33.46990 | 38005 ft | 423 kts | 281° |
| 2026-04-26 20:10 | 40.67808 | 33.40663 | 38021 ft | 424 kts | 281° |
| 2026-04-26 20:10 | 40.68905 | 33.33030 | 38033 ft | 424 kts | 281° |
| 2026-04-26 20:11 | 40.69996 | 33.25403 | 38046 ft | 423 kts | 281° |
| 2026-04-26 20:12 | 40.71630 | 33.13956 | 38059 ft | 423 kts | 281° |
| 2026-04-26 20:12 | 40.72711 | 33.06328 | 38067 ft | 423 kts | 281° |
| 2026-04-26 20:13 | 40.73786 | 32.98698 | 38068 ft | 423 kts | 281° |
| 2026-04-26 20:13 | 40.74854 | 32.91056 | 38060 ft | 423 kts | 281° |
| 2026-04-26 20:14 | 40.75921 | 32.83413 | 38066 ft | 423 kts | 281° |
| 2026-04-26 20:14 | 40.76984 | 32.75777 | 38079 ft | 423 kts | 281° |
| 2026-04-26 20:15 | 40.78032 | 32.68186 | 38079 ft | 423 kts | 281° |
| 2026-04-26 20:15 | 40.79075 | 32.60552 | 38081 ft | 422 kts | 281° |
| 2026-04-26 20:16 | 40.80115 | 32.52925 | 38092 ft | 422 kts | 281° |
| 2026-04-26 20:16 | 40.81151 | 32.45303 | 38092 ft | 422 kts | 281° |
| 2026-04-26 20:16 | 40.81672 | 32.41467 | 37907 ft | 429 kts | 281° |
| 2026-04-26 20:17 | 40.82206 | 32.37542 | 37632 ft | 439 kts | 281° |
| 2026-04-26 20:17 | 40.82745 | 32.33563 | 37360 ft | 441 kts | 281° |
| 2026-04-26 20:17 | 40.83280 | 32.29577 | 37103 ft | 441 kts | 281° |
| 2026-04-26 20:17 | 40.83632 | 32.26938 | 36916 ft | 440 kts | 281° |
| 2026-04-26 20:18 | 40.84338 | 32.21633 | 36565 ft | 437 kts | 281° |
| 2026-04-26 20:18 | 40.84864 | 32.17675 | 36312 ft | 436 kts | 281° |
| 2026-04-26 20:18 | 40.85385 | 32.13742 | 36045 ft | 434 kts | 281° |
| 2026-04-26 20:18 | 40.85904 | 32.09826 | 35792 ft | 432 kts | 281° |
| 2026-04-26 20:19 | 40.86407 | 32.05926 | 35539 ft | 429 kts | 279° |
| 2026-04-26 20:19 | 40.86819 | 32.02032 | 35300 ft | 427 kts | 278° |
| 2026-04-26 20:19 | 40.87155 | 31.98136 | 35046 ft | 426 kts | 277° |
| 2026-04-26 20:19 | 40.87448 | 31.94248 | 34801 ft | 424 kts | 277° |
| 2026-04-26 20:20 | 40.87730 | 31.90365 | 34560 ft | 423 kts | 277° |
| 2026-04-26 20:20 | 40.88017 | 31.86510 | 34318 ft | 421 kts | 277° |
| 2026-04-26 20:20 | 40.88313 | 31.82674 | 34080 ft | 419 kts | 277° |
| 2026-04-26 20:20 | 40.88618 | 31.78855 | 33809 ft | 417 kts | 277° |
| 2026-04-26 20:21 | 40.88932 | 31.75055 | 33531 ft | 415 kts | 278° |
| 2026-04-26 20:21 | 40.89248 | 31.71274 | 33253 ft | 413 kts | 278° |
| 2026-04-26 20:21 | 40.89558 | 31.67558 | 32904 ft | 409 kts | 278° |
| 2026-04-26 20:21 | 40.89868 | 31.63839 | 32398 ft | 406 kts | 278° |
| 2026-04-26 20:22 | 40.90171 | 31.60148 | 31880 ft | 402 kts | 278° |
| 2026-04-26 20:22 | 40.90464 | 31.56496 | 31379 ft | 399 kts | 278° |
| 2026-04-26 20:22 | 40.90754 | 31.52864 | 30886 ft | 396 kts | 278° |
| 2026-04-26 20:22 | 40.91039 | 31.49260 | 30394 ft | 393 kts | 278° |
| 2026-04-26 20:23 | 40.91325 | 31.45679 | 29877 ft | 390 kts | 278° |
| 2026-04-26 20:23 | 40.91604 | 31.42130 | 29378 ft | 386 kts | 278° |
| 2026-04-26 20:23 | 40.91882 | 31.38626 | 28921 ft | 381 kts | 278° |
| 2026-04-26 20:23 | 40.92155 | 31.35158 | 28463 ft | 376 kts | 278° |
| 2026-04-26 20:24 | 40.92424 | 31.31747 | 28019 ft | 372 kts | 277° |
| 2026-04-26 20:24 | 40.92690 | 31.28361 | 27587 ft | 367 kts | 277° |
| 2026-04-26 20:24 | 40.92950 | 31.25022 | 27165 ft | 363 kts | 277° |
| 2026-04-26 20:24 | 40.93205 | 31.21724 | 26756 ft | 358 kts | 277° |
| 2026-04-26 20:25 | 40.93456 | 31.18462 | 26345 ft | 355 kts | 277° |
| 2026-04-26 20:25 | 40.93625 | 31.16283 | 26077 ft | 352 kts | 277° |
| 2026-04-26 20:25 | 40.93950 | 31.12037 | 25538 ft | 348 kts | 277° |
| 2026-04-26 20:25 | 40.94192 | 31.08868 | 25140 ft | 345 kts | 277° |
| 2026-04-26 20:26 | 40.94433 | 31.05733 | 24722 ft | 342 kts | 277° |
| 2026-04-26 20:26 | 40.94674 | 31.02598 | 24303 ft | 340 kts | 277° |
| 2026-04-26 20:26 | 40.94910 | 30.99494 | 23893 ft | 338 kts | 277° |
| 2026-04-26 20:26 | 40.95143 | 30.96401 | 23443 ft | 337 kts | 277° |
| 2026-04-26 20:27 | 40.95374 | 30.93315 | 22990 ft | 335 kts | 277° |
| 2026-04-26 20:27 | 40.95603 | 30.90261 | 22560 ft | 332 kts | 277° |
| 2026-04-26 20:27 | 40.95833 | 30.87232 | 22146 ft | 330 kts | 277° |
| 2026-04-26 20:27 | 40.96057 | 30.84226 | 21739 ft | 327 kts | 277° |
| 2026-04-26 20:28 | 40.96276 | 30.81239 | 21328 ft | 325 kts | 276° |
| 2026-04-26 20:28 | 40.96492 | 30.78271 | 20913 ft | 323 kts | 276° |
| 2026-04-26 20:28 | 40.96706 | 30.75317 | 20506 ft | 322 kts | 276° |
| 2026-04-26 20:28 | 40.96920 | 30.72377 | 20101 ft | 321 kts | 276° |
| 2026-04-26 20:29 | 40.97133 | 30.69446 | 19699 ft | 320 kts | 276° |
| 2026-04-26 20:29 | 40.97346 | 30.66529 | 19297 ft | 319 kts | 276° |
| 2026-04-26 20:29 | 40.97557 | 30.63604 | 18897 ft | 318 kts | 276° |
| 2026-04-26 20:29 | 40.97764 | 30.60723 | 18505 ft | 318 kts | 276° |
| 2026-04-26 20:30 | 40.97970 | 30.57811 | 18083 ft | 318 kts | 276° |
| 2026-04-26 20:30 | 40.98177 | 30.54907 | 17674 ft | 316 kts | 276° |
| 2026-04-26 20:30 | 40.98386 | 30.52020 | 17279 ft | 314 kts | 276° |
| 2026-04-26 20:30 | 40.98593 | 30.49147 | 16893 ft | 313 kts | 276° |
| 2026-04-26 20:31 | 40.98797 | 30.46282 | 16515 ft | 311 kts | 276° |
| 2026-04-26 20:31 | 40.99000 | 30.43441 | 16127 ft | 310 kts | 277° |
| 2026-04-26 20:31 | 40.99206 | 30.40594 | 15757 ft | 310 kts | 277° |
| 2026-04-26 20:31 | 40.99406 | 30.37759 | 15382 ft | 309 kts | 276° |
| 2026-04-26 20:32 | 40.99601 | 30.34925 | 15002 ft | 309 kts | 276° |
| 2026-04-26 20:32 | 40.99795 | 30.32094 | 14632 ft | 309 kts | 277° |
| 2026-04-26 20:32 | 40.99993 | 30.29266 | 14263 ft | 309 kts | 277° |
| 2026-04-26 20:32 | 41.00190 | 30.26436 | 13875 ft | 309 kts | 277° |
| 2026-04-26 20:33 | 41.00387 | 30.23606 | 13462 ft | 308 kts | 277° |
| 2026-04-26 20:33 | 41.00582 | 30.20785 | 13078 ft | 307 kts | 277° |
| 2026-04-26 20:33 | 41.00776 | 30.17979 | 12692 ft | 306 kts | 277° |
| 2026-04-26 20:33 | 41.00965 | 30.15182 | 12307 ft | 304 kts | 276° |
| 2026-04-26 20:34 | 41.01152 | 30.12397 | 11920 ft | 303 kts | 276° |
| 2026-04-26 20:34 | 41.01336 | 30.09622 | 11536 ft | 302 kts | 276° |
| 2026-04-26 20:34 | 41.01521 | 30.06856 | 11137 ft | 301 kts | 276° |
| 2026-04-26 20:34 | 41.01709 | 30.04091 | 10728 ft | 301 kts | 277° |
| 2026-04-26 20:35 | 41.01898 | 30.01328 | 10333 ft | 301 kts | 276° |
| 2026-04-26 20:35 | 41.02084 | 29.98577 | 10044 ft | 297 kts | 276° |
| 2026-04-26 20:35 | 41.02263 | 29.95898 | 9848 ft | 289 kts | 276° |
| 2026-04-26 20:35 | 41.02439 | 29.93248 | 9453 ft | 288 kts | 276° |
| 2026-04-26 20:36 | 41.02612 | 29.90611 | 8999 ft | 290 kts | 277° |
| 2026-04-26 20:36 | 41.02783 | 29.88012 | 8719 ft | 284 kts | 277° |
| 2026-04-26 20:36 | 41.02952 | 29.85411 | 8340 ft | 282 kts | 277° |
| 2026-04-26 20:36 | 41.03119 | 29.82827 | 7963 ft | 281 kts | 277° |
| 2026-04-26 20:37 | 41.03283 | 29.80256 | 7598 ft | 279 kts | 277° |
| 2026-04-26 20:37 | 41.03445 | 29.77705 | 7242 ft | 277 kts | 278° |
| 2026-04-26 20:37 | 41.03604 | 29.75207 | 7014 ft | 264 kts | 278° |
| 2026-04-26 20:37 | 41.03752 | 29.72871 | 6814 ft | 246 kts | 278° |
| 2026-04-26 20:38 | 41.03864 | 29.70632 | 6406 ft | 244 kts | 271° |
| 2026-04-26 20:38 | 41.03532 | 29.68428 | 6121 ft | 246 kts | 253° |
| 2026-04-26 20:38 | 41.02837 | 29.66350 | 5823 ft | 247 kts | 248° |
| 2026-04-26 20:38 | 41.02075 | 29.64313 | 5434 ft | 249 kts | 247° |
| 2026-04-26 20:39 | 41.01309 | 29.62229 | 5009 ft | 249 kts | 247° |
| 2026-04-26 20:39 | 41.00818 | 29.60885 | 4873 ft | 240 kts | 248° |
| 2026-04-26 20:39 | 40.99890 | 29.58340 | 4641 ft | 222 kts | 248° |
| 2026-04-26 20:39 | 40.99232 | 29.56530 | 4412 ft | 216 kts | 248° |
| 2026-04-26 20:40 | 40.98584 | 29.54751 | 4185 ft | 213 kts | 247° |
| 2026-04-26 20:40 | 40.97946 | 29.53005 | 4033 ft | 205 kts | 247° |
| 2026-04-26 20:40 | 40.97342 | 29.51353 | 3851 ft | 195 kts | 248° |
| 2026-04-26 20:40 | 40.96759 | 29.49756 | 3564 ft | 191 kts | 247° |
| 2026-04-26 20:41 | 40.96187 | 29.48190 | 3294 ft | 188 kts | 247° |
| 2026-04-26 20:41 | 40.95628 | 29.46662 | 3013 ft | 186 kts | 247° |
| 2026-04-26 20:41 | 40.95076 | 29.45154 | 2729 ft | 176 kts | 247° |
| 2026-04-26 20:41 | 40.94562 | 29.43753 | 2478 ft | 162 kts | 247° |
| 2026-04-26 20:42 | 40.94095 | 29.42479 | 2233 ft | 147 kts | 247° |
| 2026-04-26 20:42 | 40.93664 | 29.41301 | 2007 ft | 139 kts | 247° |
| 2026-04-26 20:42 | 40.93249 | 29.40169 | 1802 ft | 135 kts | 246° |
| 2026-04-26 20:42 | 40.92841 | 29.39055 | 1583 ft | 134 kts | 246° |
| 2026-04-26 20:43 | 40.92439 | 29.37953 | 1381 ft | 134 kts | 246° |
| 2026-04-26 20:43 | 40.92033 | 29.36833 | 1175 ft | 135 kts | 245° |
| 2026-04-26 20:43 | 40.91613 | 29.35710 | 973 ft | 137 kts | 244° |
| 2026-04-26 20:43 | 40.91195 | 29.34573 | 739 ft | 137 kts | 245° |
| 2026-04-26 20:44 | 40.90779 | 29.33436 | 529 ft | 137 kts | 244° |
| 2026-04-26 20:44 | 40.90363 | 29.32303 | 334 ft | 135 kts | 245° |
| 2026-04-26 20:44 | 40.90003 | 29.31316 | 311 ft | 96 kts | 244° |
| 2026-04-26 20:44 | 40.89783 | 29.30723 | 312 ft | 47 kts | 244° |
| 2026-04-26 20:45 | 40.89654 | 29.30358 | 310 ft | 41 kts | 248° |
| 2026-04-26 20:45 | 40.89635 | 29.30013 | 307 ft | 28 kts | 274° |
| 2026-04-26 20:45 | 40.89698 | 29.29945 | 307 ft | 13 kts | 39° |
| 2026-04-26 20:45 | 40.89739 | 29.30040 | 309 ft | 11 kts | 64° |
| 2026-04-26 20:46 | 40.89780 | 29.30149 | 310 ft | 17 kts | 63° |
| 2026-04-26 20:46 | 40.89842 | 29.30316 | 310 ft | 23 kts | 64° |
| 2026-04-26 20:46 | 40.89915 | 29.30512 | 311 ft | 24 kts | 64° |
| 2026-04-26 20:46 | 40.89993 | 29.30720 | 310 ft | 26 kts | 63° |
| 2026-04-26 20:47 | 40.90074 | 29.30944 | 311 ft | 28 kts | 64° |
| 2026-04-26 20:47 | 40.90101 | 29.31019 | 311 ft | 28 kts | 64° |
| 2026-04-26 20:47 | 40.90235 | 29.31385 | 311 ft | 24 kts | 64° |
| 2026-04-26 20:47 | 40.90305 | 29.31496 | 311 ft | 14 kts | 5° |
| 2026-04-26 20:48 | 40.90398 | 29.31445 | 311 ft | 15 kts | 334° |
| 2026-04-26 20:48 | 40.90462 | 29.31471 | 310 ft | 9 kts | 58° |
| 2026-04-26 20:48 | 40.90487 | 29.31540 | 310 ft | 8 kts | 64° |
| 2026-04-26 20:48 | 40.90509 | 29.31601 | 310 ft | 7 kts | 64° |
| 2026-04-26 20:49 | 40.90528 | 29.31652 | 310 ft | 6 kts | 64° |
| 2026-04-26 20:49 | 40.90543 | 29.31695 | 310 ft | 5 kts | 64° |
| 2026-04-26 20:49 | 40.90565 | 29.31712 | 311 ft | 3 kts | 5° |
| 2026-04-26 20:49 | 40.90582 | 29.31703 | 311 ft | 2 kts | 333° |
| 2026-04-26 20:50 | 40.90595 | 29.31695 | 311 ft | 3 kts | 334° |
| 2026-04-26 20:50 | 40.90611 | 29.31684 | 311 ft | 2 kts | 334° |
| 2026-04-26 20:50 | 40.90629 | 29.31673 | 311 ft | 3 kts | 334° |
| 2026-04-26 20:50 | 40.90645 | 29.31662 | 311 ft | 0 kts | 334° |